Flight Track Log - Related Links

Times and Time Zones

All times are in EDT time to prevent confusion due to time zone crossing. See the N411ML flight status page for this flight to view local times or setup timezone preferences in your user account.

Time Position Orientation Groundspeed Altitude Reporting Facility
EDT Latitude Longitude Course Direction KTS MPH feet Rate Location/Type
Sat 09:56:37 PM 41.6986 -71.5281 255° West 117 135 1,800  Level Boston Center
Sat 09:57:38 PM 41.6906 -71.5672 255° West 116 133 2,600 793 Climbing Boston Center
Sat 09:58:38 PM 41.6806 -71.6117 253° West 114 131 3,400 793 Climbing Boston Center
Sat 09:59:39 PM 41.6744 -71.6508 258° West 112 129 4,200 744 Climbing Boston Center
Sat 10:00:39 PM 41.6644 -71.6953 253° West 112 129 4,900 678 Climbing Boston Center
Sat 10:01:00 PM 41.5272 -72.4396 256° West  Level Estimated
Sat 10:01:34 PM 41.6583 -71.7289 256° West 113 130 5,500  Level Boston Center
Sat 10:02:00 PM 41.5171 -72.4900 255° West  Level Estimated
Sat 10:02:35 PM 41.6522 -71.7678 258° West 110 127 6,200  Level Boston Center
Sat 10:03:35 PM 41.6442 -71.8122 256° West 112 129 6,500 149 Climbing Boston Center
Sat 10:04:36 PM 41.6361 -71.8622 258° West 136 157 6,500  Level Boston Center
Sat 10:05:06 PM 41.6300 -71.8903 254° West 141 162 6,500  Level Boston Center
Sat 10:05:43 PM 41.6239 -71.9208 255° West 143 165 6,500  Level Boston Center
Sat 10:06:44 PM 41.6136 -71.9736 255° West 142 163 6,500  Level Boston Center
Sat 10:07:50 PM 41.6036 -72.0292 256° West 140 161 6,500  Level Boston Center
Sat 10:08:51 PM 41.5933 -72.0819 255° West 139 160 6,500  Level Boston Center
Sat 10:09:52 PM 41.5850 -72.1292 257° West 139 160 6,500  Level Boston Center
Sat 10:10:52 PM 41.5747 -72.1792 255° West 139 160 6,500  Level Boston Center
Sat 10:11:53 PM 41.5644 -72.2292 255° West 140 161 6,500 39 Level Boston Center
Sat 10:13:25 PM 41.5500 -72.3000 255° West 140 161 6,600 39 Climbing New York TRACON
Sat 10:14:25 PM 41.5333 -72.3500 246° West 139 160 6,600  Level New York TRACON
Sat 10:15:25 PM 41.5333 -72.4000 270° West 140 161 6,600  Level New York TRACON
Sat 10:16:19 PM 41.5167 -72.4500 246° West 140 161 6,600  Level New York TRACON
Sat 10:17:19 PM 41.5167 -72.5000 270° West 142 163 6,600  Level New York TRACON
Sat 10:18:19 PM 41.5000 -72.5500 246° West 149 171 6,600  Level New York TRACON
Sat 10:19:19 PM 41.4833 -72.6000 246° West 143 165 6,600  Level New York TRACON
Sat 10:20:19 PM 41.4833 -72.6500 270° West 143 165 6,600  Level New York TRACON
Sat 10:21:19 PM 41.4667 -72.7000 246° West 139 160 6,600  Level New York TRACON
Sat 10:22:19 PM 41.4667 -72.7500 270° West 141 162 6,600  Level New York TRACON
Sat 10:23:19 PM 41.4500 -72.8000 246° West 143 165 6,600  Level New York TRACON
Sat 10:24:19 PM 41.4333 -72.8500 246° West 144 166 6,600  Level New York TRACON
Sat 10:25:19 PM 41.4333 -72.9000 270° West 144 166 6,600  Level New York TRACON
Sat 10:26:19 PM 41.4167 -72.9500 246° West 143 165 6,600  Level New York TRACON
Sat 10:27:25 PM 41.4000 -73.0167 252° West 140 161 6,600  Level New York TRACON
Sat 10:28:25 PM 41.4000 -73.0667 270° West 141 162 6,600  Level New York TRACON
Sat 10:29:25 PM 41.3833 -73.1167 246° West 141 162 6,600  Level New York TRACON
Sat 10:30:25 PM 41.3667 -73.1667 246° West 143 165 6,600  Level New York TRACON
Sat 10:31:25 PM 41.3667 -73.2167 270° West 141 162 6,600  Level New York TRACON
Sat 10:32:19 PM 41.3500 -73.2500 236° Southwest 143 165 6,600  Level New York TRACON
Sat 10:33:19 PM 41.3500 -73.3000 270° West 145 167 6,600  Level New York TRACON
Sat 10:34:19 PM 41.3333 -73.3667 252° West 143 165 6,600  Level New York TRACON
Sat 10:35:19 PM 41.3167 -73.4167 246° West 144 166 6,600  Level New York TRACON
Sat 10:36:19 PM 41.3000 -73.4667 246° West 145 167 6,600 -100 Level New York TRACON
Sat 10:37:19 PM 41.3000 -73.5167 270° West 147 169 6,400 -211 Descending New York TRACON
Sat 10:38:13 PM 41.2833 -73.5500 236° Southwest 152 175 6,200 -368 Descending New York TRACON
Sat 10:39:13 PM 41.2667 -73.6167 252° West 152 175 5,700 -400 Descending New York TRACON
Sat 10:40:13 PM 41.2667 -73.6667 270° West 157 181 5,400 -350 Descending New York TRACON
Sat 10:41:13 PM 41.2500 -73.7167 246° West 156 180 5,000 -400 Descending New York TRACON
Sat 10:42:13 PM 41.2333 -73.7667 246° West 154 177 4,600 -250 Descending New York TRACON
Sat 10:43:13 PM 41.2333 -73.8333 270° West 148 170 4,500 -50 Descending New York TRACON
Sat 10:44:13 PM 41.2167 -73.8833 246° West 142 163 4,500 -238 Level New York TRACON
Sat 10:45:19 PM 41.2000 -73.9333 246° West 155 178 4,000 -409 Descending New York TRACON
Sat 10:46:25 PM 41.2000 -74.0000 270° West 163 188 3,600 -400 Descending New York TRACON
Sat 10:47:19 PM 41.2167 -74.0333 304° West 150 173 3,200 -444 Descending New York TRACON
Sat 10:49:00 PM 41.1814 -74.0920 254° West  Level FlightAware Approximate
Sat 10:56:00 PM 41.1167 -74.3333 246° West  Level FlightAware Approximate
Sat 10:57:00 PM 41.1284 -74.3465 246° West  Level Estimated
Sat 10:58:00 PM 41.1284 -74.3465 246° West  Level Estimated
Sat 10:59:00 PM 41.1284 -74.3465 246° West  Level Estimated
Sat 11:00:00 PM 41.1284 -74.3465 246° West  Level Estimated
Sat 11:01:00 PM 41.1284 -74.3465 246° West  Level Estimated
Sat 11:02:00 PM 41.1284 -74.3465 246° West  Level Estimated
Sat 11:03:00 PM 41.1284 -74.3465 246° West  Level Estimated
Sat 11:04:00 PM 41.1284 -74.3465 246° West  Level Estimated
Sat 11:05:00 PM 41.1284 -74.3465 246° West  Level Estimated
Sat 11:06:00 PM 41.1284 -74.3465 246° West  Level Estimated
Sat 11:07:00 PM 41.1284 -74.3465 246° West  Level Estimated
Sat 11:08:00 PM 41.1284 -74.3465 246° West  Level Estimated
Sat 11:09:00 PM 41.1284 -74.3465 246° West  Level Estimated
Sat 11:10:00 PM 41.1284 -74.3465 246° West  Level Estimated
Sat 11:11:00 PM 41.1284 -74.3465 246° West  Level Estimated

Login

Don't have an account? Register now (free) for customized features, flight alerts, and more!